Time;durP1;ratioP1;P1;durP2;ratioP2;P2;SDS_P1;SDS_P2;PMS_P1;PMS_P2;Temp;Humidity;BMP_temperature;BMP_pressure;BME280_temperature;BME280_humidity;BME280_pressure;Samples;Min_cycle;Max_cycle;Signal;HPM_P1;HPM_P2
2024/03/24 00:02:42;;;;;;;;;;;;;;;2.63;100.00;95090.38;10492036;28;2881;-70
2024/03/24 00:07:44;;;;;;;;;;;;;;;2.55;100.00;95079.34;10492948;28;2772;-70
2024/03/24 00:12:46;;;;;;;;;;;;;;;2.55;100.00;95085.47;10494860;28;2828;-68
2024/03/24 00:17:48;;;;;;;;;;;;;;;2.62;100.00;95080.81;10496211;28;2828;-70
2024/03/24 00:22:51;;;;;;;;;;;;;;;2.85;100.00;95071.84;10491188;28;2942;-70
2024/03/24 00:27:52;;;;;;;;;;;;;;;2.90;100.00;95063.97;10493395;28;2856;-68
2024/03/24 00:32:54;;;;;;;;;;;;;;;2.96;100.00;95063.00;10499850;28;2803;-67
2024/03/24 00:37:55;;;;;;;;;;;;;;;2.93;100.00;95062.72;10500330;28;2862;-68
2024/03/24 00:42:57;;;;;;;;;;;;;;;2.83;100.00;95065.19;10491864;28;2672;-74
2024/03/24 00:47:59;;;;;;;;;;;;;;;2.62;100.00;95064.88;10484951;28;2722;-70
2024/03/24 00:53:01;;;;;;;;;;;;;;;2.41;100.00;95047.81;10490053;28;2789;-70
2024/03/24 00:58:03;;;;;;;;;;;;;;;2.33;100.00;95042.91;10491635;28;2595;-75
2024/03/24 01:03:05;;;;;;;;;;;;;;;2.33;100.00;95050.84;10492625;28;2949;-74
2024/03/24 01:08:06;;;;;;;;;;;;;;;2.21;100.00;95030.75;10495291;28;2822;-71
2024/03/24 01:13:08;;;;;;;;;;;;;;;2.16;100.00;94997.81;10495586;28;2505;-69
2024/03/24 01:18:10;;;;;;;;;;;;;;;2.12;100.00;94996.69;10501482;28;2844;-67
2024/03/24 01:23:12;;;;;;;;;;;;;;;2.16;100.00;94992.53;10495971;28;2724;-70
2024/03/24 01:28:13;;;;;;;;;;;;;;;2.19;100.00;94985.91;10504795;28;2816;-70
2024/03/24 01:33:15;;;;;;;;;;;;;;;2.36;100.00;94985.94;10501061;28;2674;-71
2024/03/24 01:38:17;;;;;;;;;;;;;;;2.52;100.00;94979.81;10497691;28;2733;-68
2024/03/24 01:43:19;;;;;;;;;;;;;;;2.59;100.00;94969.81;10519827;28;2798;-69
2024/03/24 01:48:21;;;;;;;;;;;;;;;2.63;100.00;94955.03;10500869;28;2803;-69
2024/03/24 01:53:22;;;;;;;;;;;;;;;2.64;100.00;94948.69;10503619;28;2958;-68
2024/03/24 01:58:24;;;;;;;;;;;;;;;2.82;100.00;94944.16;10487146;28;2509;-69
2024/03/24 02:03:26;;;;;;;;;;;;;;;2.81;100.00;94929.28;10503557;28;3027;-67
2024/03/24 02:08:27;;;;;;;;;;;;;;;2.68;100.00;94941.06;10497607;28;2798;-69
2024/03/24 02:13:29;;;;;;;;;;;;;;;2.58;100.00;94946.19;10484990;28;2881;-69
2024/03/24 02:18:31;;;;;;;;;;;;;;;2.31;100.00;94935.47;10492555;28;2893;-72
2024/03/24 02:23:33;;;;;;;;;;;;;;;2.05;100.00;94927.09;10500521;28;2967;-73
2024/03/24 02:28:35;;;;;;;;;;;;;;;2.05;100.00;94921.81;10502382;28;2886;-71
2024/03/24 02:33:37;;;;;;;;;;;;;;;2.20;100.00;94917.78;10500843;28;2751;-70
2024/03/24 02:38:39;;;;;;;;;;;;;;;2.19;100.00;94901.06;10499327;28;2879;-70
2024/03/24 02:43:41;;;;;;;;;;;;;;;2.16;100.00;94891.75;10502354;28;2818;-71
2024/03/24 02:48:43;;;;;;;;;;;;;;;2.21;100.00;94883.06;10498790;28;2793;-74
2024/03/24 02:53:44;;;;;;;;;;;;;;;2.09;100.00;94875.19;10509382;28;2752;-74
2024/03/24 02:58:46;;;;;;;;;;;;;;;2.07;100.00;94861.38;10498997;28;2875;-78
2024/03/24 03:03:47;;;;;;;;;;;;;;;2.04;100.00;94861.09;10502837;28;2667;-79
2024/03/24 03:08:49;;;;;;;;;;;;;;;2.09;100.00;94853.19;10501295;28;2807;-74
2024/03/24 03:13:50;;;;;;;;;;;;;;;2.09;100.00;94853.19;10501105;28;2837;-70
2024/03/24 03:18:52;;;;;;;;;;;;;;;2.06;100.00;94843.88;10499884;28;2632;-70
2024/03/24 03:23:54;;;;;;;;;;;;;;;2.11;100.00;94841.31;10500693;28;2735;-72
2024/03/24 03:28:55;;;;;;;;;;;;;;;2.10;100.00;94829.09;10505028;28;2874;-70
2024/03/24 03:33:57;;;;;;;;;;;;;;;1.93;100.00;94836.25;10499273;28;2776;-69
2024/03/24 03:38:59;;;;;;;;;;;;;;;1.86;100.00;94819.72;10501043;28;2823;-69
2024/03/24 03:44:00;;;;;;;;;;;;;;;1.80;100.00;94815.41;10492699;28;2741;-69
2024/03/24 03:49:02;;;;;;;;;;;;;;;1.80;100.00;94824.16;10484259;28;2971;-69
2024/03/24 03:54:04;;;;;;;;;;;;;;;1.86;100.00;94823.19;10509696;28;2603;-71
2024/03/24 03:59:06;;;;;;;;;;;;;;;2.00;100.00;94828.94;10481085;28;2524;-69
2024/03/24 04:04:08;;;;;;;;;;;;;;;2.08;100.00;94815.28;10499783;28;2642;-69
2024/03/24 04:09:16;;;;;;;;;;;;;;;2.11;100.00;94804.19;10498783;28;2735;-70
2024/03/24 04:14:17;;;;;;;;;;;;;;;2.15;100.00;94807.16;10495639;28;2936;-71
2024/03/24 04:19:18;;;;;;;;;;;;;;;2.05;100.00;94810.47;10508483;28;2705;-67
2024/03/24 04:24:20;;;;;;;;;;;;;;;2.02;100.00;94816.25;10492713;28;2614;-68
2024/03/24 04:29:22;;;;;;;;;;;;;;;2.06;100.00;94806.78;10491750;28;2766;-68
2024/03/24 04:34:24;;;;;;;;;;;;;;;2.04;100.00;94819.47;10495754;28;6330;-77
2024/03/24 04:39:25;;;;;;;;;;;;;;;2.21;100.00;94813.31;10498513;28;2671;-70
2024/03/24 04:44:27;;;;;;;;;;;;;;;2.28;100.00;94819.25;10494581;28;2889;-70
2024/03/24 04:49:29;;;;;;;;;;;;;;;2.33;100.00;94820.13;10493896;28;2756;-70
2024/03/24 04:54:30;;;;;;;;;;;;;;;2.35;100.00;94815.38;10501660;28;2641;-69
2024/03/24 04:59:32;;;;;;;;;;;;;;;2.27;100.00;94805.19;10480810;28;2823;-68
2024/03/24 05:04:35;;;;;;;;;;;;;;;2.21;100.00;94810.66;10499021;28;2801;-68
2024/03/24 05:09:37;;;;;;;;;;;;;;;2.21;100.00;94821.28;10498144;28;2720;-69
2024/03/24 05:14:38;;;;;;;;;;;;;;;2.21;100.00;94823.94;10491409;28;2802;-68
2024/03/24 05:19:40;;;;;;;;;;;;;;;2.22;100.00;94830.81;10489170;28;2757;-69
2024/03/24 05:24:42;;;;;;;;;;;;;;;2.39;100.00;94831.59;10496074;28;2835;-68
2024/03/24 05:29:44;;;;;;;;;;;;;;;2.38;100.00;94836.09;10493760;28;2845;-68
2024/03/24 05:34:46;;;;;;;;;;;;;;;2.39;100.00;94842.22;10490795;28;2826;-70
2024/03/24 05:39:48;;;;;;;;;;;;;;;2.29;100.00;94836.75;10500055;28;2809;-69
2024/03/24 05:44:51;;;;;;;;;;;;;;;2.14;100.00;94830.19;10498745;28;2803;-71
2024/03/24 05:49:52;;;;;;;;;;;;;;;2.08;100.00;94841.78;10491876;28;2734;-69
2024/03/24 05:54:54;;;;;;;;;;;;;;;1.97;100.00;94829.41;10496480;28;2852;-74
2024/03/24 05:59:56;;;;;;;;;;;;;;;1.92;100.00;94832.00;10493603;28;2741;-76
2024/03/24 06:04:57;;;;;;;;;;;;;;;1.88;100.00;94830.88;10501809;28;2816;-72
2024/03/24 06:09:59;;;;;;;;;;;;;;;2.30;100.00;94854.31;10500516;28;2785;-70
2024/03/24 06:15:01;;;;;;;;;;;;;;;2.33;100.00;94848.50;10504950;28;2825;-69
2024/03/24 06:20:06;;;;;;;;;;;;;;;2.38;100.00;94851.22;10498090;28;2828;-69
2024/03/24 06:25:08;;;;;;;;;;;;;;;2.41;100.00;94856.03;10503532;28;2611;-69
2024/03/24 06:30:10;;;;;;;;;;;;;;;2.43;100.00;94856.59;10495516;28;2883;-70
2024/03/24 06:35:11;;;;;;;;;;;;;;;2.46;100.00;94856.09;10483553;28;2770;-69
2024/03/24 06:40:13;;;;;;;;;;;;;;;2.59;100.00;94857.59;10507064;28;2828;-68
2024/03/24 06:45:14;;;;;;;;;;;;;;;2.76;100.00;94841.63;10502237;28;2833;-73
2024/03/24 06:50:16;;;;;;;;;;;;;;;3.11;100.00;94843.88;10502930;28;2768;-70
2024/03/24 06:55:17;;;;;;;;;;;;;;;3.41;100.00;94851.34;10498021;28;2848;-70
2024/03/24 07:00:19;;;;;;;;;;;;;;;3.43;100.00;94846.59;10494815;28;2813;-70
2024/03/24 07:05:22;;;;;;;;;;;;;;;3.40;100.00;94853.22;10495071;28;2838;-68
2024/03/24 07:10:24;;;;;;;;;;;;;;;4.18;100.00;94852.78;10500019;28;2578;-70
2024/03/24 07:15:25;;;;;;;;;;;;;;;4.83;100.00;94846.22;10503674;28;2715;-71
2024/03/24 07:20:27;;;;;;;;;;;;;;;4.68;100.00;94841.66;10498292;28;2641;-69
2024/03/24 07:25:29;;;;;;;;;;;;;;;4.56;100.00;94849.03;10499559;28;2852;-72
2024/03/24 07:30:30;;;;;;;;;;;;;;;4.82;100.00;94832.13;10478895;28;2750;-70
2024/03/24 07:35:33;;;;;;;;;;;;;;;4.92;100.00;94846.56;10481728;28;2783;-70
2024/03/24 07:40:34;;;;;;;;;;;;;;;4.97;100.00;94841.25;10502671;28;2929;-72
2024/03/24 07:45:36;;;;;;;;;;;;;;;5.06;100.00;94832.47;10497593;28;2772;-70
2024/03/24 07:50:40;;;;;;;;;;;;;;;5.10;100.00;94852.22;10501304;28;2717;-70
2024/03/24 07:55:41;;;;;;;;;;;;;;;5.74;100.00;94827.00;10500110;28;2857;-70
2024/03/24 08:00:43;;;;;;;;;;;;;;;5.97;100.00;94829.16;10495087;28;2751;-69
2024/03/24 08:05:44;;;;;;;;;;;;;;;5.92;100.00;94836.41;10497222;28;2608;-68
2024/03/24 08:10:46;;;;;;;;;;;;;;;6.04;100.00;94836.09;10492471;28;2884;-67
2024/03/24 08:15:48;;;;;;;;;;;;;;;5.46;100.00;94846.16;10500327;28;2819;-69
2024/03/24 08:20:53;;;;;;;;;;;;;;;5.19;100.00;94849.03;10496219;28;2743;-69
2024/03/24 08:25:55;;;;;;;;;;;;;;;4.53;100.00;94865.53;10500900;28;2785;-68
2024/03/24 08:30:56;;;;;;;;;;;;;;;4.33;100.00;94876.84;10499187;28;2726;-72
2024/03/24 08:35:58;;;;;;;;;;;;;;;4.12;100.00;94881.22;10499175;28;2860;-67
2024/03/24 08:41:00;;;;;;;;;;;;;;;4.24;100.00;94887.16;10498018;28;2799;-68
2024/03/24 08:46:01;;;;;;;;;;;;;;;4.52;100.00;94885.22;10494801;28;2858;-69
2024/03/24 08:51:03;;;;;;;;;;;;;;;4.61;100.00;94894.31;10498417;28;2969;-65
2024/03/24 08:56:05;;;;;;;;;;;;;;;4.37;100.00;94911.72;10499276;28;2803;-66
2024/03/24 09:01:07;;;;;;;;;;;;;;;4.00;100.00;94896.53;10498901;28;2803;-65
2024/03/24 09:06:09;;;;;;;;;;;;;;;4.43;100.00;94910.69;10491919;28;2867;-65
2024/03/24 09:11:12;;;;;;;;;;;;;;;4.58;100.00;94916.09;10491042;28;2776;-66
2024/03/24 09:16:17;;;;;;;;;;;;;;;4.55;100.00;94911.31;10498977;28;2790;-67
2024/03/24 09:21:19;;;;;;;;;;;;;;;4.09;100.00;94913.66;10494962;28;2863;-66
2024/03/24 09:26:20;;;;;;;;;;;;;;;4.22;100.00;94915.88;10498042;28;2790;-66
2024/03/24 09:31:22;;;;;;;;;;;;;;;4.56;100.00;94916.38;10495061;28;2596;-65
2024/03/24 09:36:25;;;;;;;;;;;;;;;5.12;100.00;94907.88;10501132;28;2859;-65
2024/03/24 09:41:27;;;;;;;;;;;;;;;5.32;100.00;94909.81;10507342;28;2838;-65
2024/03/24 09:46:31;;;;;;;;;;;;;;;5.63;100.00;94902.72;10505844;28;2860;-68
2024/03/24 09:51:34;;;;;;;;;;;;;;;6.40;100.00;94893.72;10499831;28;2827;-66
2024/03/24 09:56:35;;;;;;;;;;;;;;;6.84;100.00;94893.13;10507891;28;2929;-66
2024/03/24 10:01:38;;;;;;;;;;;;;;;6.34;100.00;94888.66;10505690;28;2793;-73
2024/03/24 10:06:40;;;;;;;;;;;;;;;6.66;100.00;94901.69;10501480;28;2796;-75
2024/03/24 10:11:42;;;;;;;;;;;;;;;6.13;100.00;94886.00;10501610;28;2901;-74
2024/03/24 10:16:45;;;;;;;;;;;;;;;6.01;100.00;94892.66;10502891;28;2777;-75
2024/03/24 10:21:46;;;;;;;;;;;;;;;6.66;100.00;94875.00;10504760;28;2785;-67
2024/03/24 10:26:48;;;;;;;;;;;;;;;6.80;100.00;94881.38;10501317;28;2503;-66
2024/03/24 10:31:50;;;;;;;;;;;;;;;6.56;100.00;94877.69;10500743;28;2761;-65
2024/03/24 10:36:52;;;;;;;;;;;;;;;6.56;100.00;94891.84;10500854;28;2530;-66
2024/03/24 10:41:54;;;;;;;;;;;;;;;5.99;100.00;94889.47;10487320;28;2739;-66
2024/03/24 10:46:56;;;;;;;;;;;;;;;5.89;100.00;94891.03;10501525;28;2893;-66
2024/03/24 10:51:57;;;;;;;;;;;;;;;5.66;100.00;94888.84;10503893;28;2716;-66
2024/03/24 10:56:58;;;;;;;;;;;;;;;5.61;100.00;94886.19;10508146;28;2849;-67
2024/03/24 11:02:00;;;;;;;;;;;;;;;6.03;100.00;94861.19;10496340;28;2801;-66
2024/03/24 11:07:03;;;;;;;;;;;;;;;6.92;100.00;94865.84;10497648;28;2809;-67
2024/03/24 11:12:05;;;;;;;;;;;;;;;7.01;100.00;94848.19;10487807;28;2731;-66
2024/03/24 11:17:06;;;;;;;;;;;;;;;6.88;100.00;94862.13;10501913;28;2867;-70
2024/03/24 11:22:08;;;;;;;;;;;;;;;7.02;100.00;94854.31;10484912;28;2809;-70
2024/03/24 11:27:13;;;;;;;;;;;;;;;6.48;100.00;94852.31;10499490;28;2882;-66
2024/03/24 11:32:15;;;;;;;;;;;;;;;6.38;100.00;94855.03;10496639;28;2788;-67
2024/03/24 11:37:16;;;;;;;;;;;;;;;6.30;100.00;94853.72;10498881;28;2595;-68
2024/03/24 11:42:19;;;;;;;;;;;;;;;6.09;100.00;94844.09;10505825;28;2873;-73
2024/03/24 11:47:20;;;;;;;;;;;;;;;6.00;100.00;94859.06;10497240;28;2659;-66
2024/03/24 11:52:22;;;;;;;;;;;;;;;6.12;100.00;94854.25;10495542;28;2800;-66
2024/03/24 11:57:23;;;;;;;;;;;;;;;6.23;100.00;94854.00;10499426;28;2789;-66
2024/03/24 12:02:25;;;;;;;;;;;;;;;6.42;100.00;94846.19;10494239;28;2859;-66
2024/03/24 12:07:26;;;;;;;;;;;;;;;6.53;100.00;94840.84;10493542;28;2797;-67
2024/03/24 12:12:27;;;;;;;;;;;;;;;6.52;100.00;94831.25;10497387;28;2801;-66
2024/03/24 12:17:29;;;;;;;;;;;;;;;6.00;100.00;94853.72;10490128;28;2807;-67
2024/03/24 12:22:31;;;;;;;;;;;;;;;5.84;100.00;94840.34;10489184;28;2914;-67
2024/03/24 12:27:33;;;;;;;;;;;;;;;6.03;100.00;94840.63;10492233;28;2712;-65
2024/03/24 12:32:35;;;;;;;;;;;;;;;7.02;100.00;94822.25;10494326;28;2884;-73
2024/03/24 12:37:36;;;;;;;;;;;;;;;7.10;100.00;94834.25;10495002;28;2807;-71
2024/03/24 12:42:39;;;;;;;;;;;;;;;6.59;100.00;94842.44;10492499;28;2992;-64
2024/03/24 12:47:45;;;;;;;;;;;;;;;6.11;100.00;94858.00;10459046;22;2895;-67
2024/03/24 12:52:48;;;;;;;;;;;;;;;5.43;100.00;94848.31;10419777;22;1092118;-66
2024/03/24 12:57:53;;;;;;;;;;;;;;;5.85;100.00;94844.63;10447511;28;2888;-69
2024/03/24 13:02:55;;;;;;;;;;;;;;;5.41;100.00;94850.44;10453054;28;2745;-67
2024/03/24 13:08:00;;;;;;;;;;;;;;;5.79;100.00;94845.69;10454619;28;2835;-67
2024/03/24 13:13:02;;;;;;;;;;;;;;;5.92;100.00;94834.53;10456327;28;2564;-66
2024/03/24 13:18:04;;;;;;;;;;;;;;;5.13;100.00;94837.56;10457076;28;2791;-65
2024/03/24 13:23:06;;;;;;;;;;;;;;;4.27;100.00;94852.06;10457797;28;2835;-67
2024/03/24 13:28:08;;;;;;;;;;;;;;;4.72;100.00;94844.59;10455834;28;2843;-65
2024/03/24 13:33:10;;;;;;;;;;;;;;;4.60;100.00;94831.50;10460991;28;2656;-68
2024/03/24 13:38:12;;;;;;;;;;;;;;;5.06;100.00;94815.69;10454423;28;2758;-68
2024/03/24 13:43:15;;;;;;;;;;;;;;;5.21;100.00;94812.25;10460481;28;2795;-67
2024/03/24 13:48:18;;;;;;;;;;;;;;;5.77;100.00;94799.81;10462253;28;2901;-76
2024/03/24 13:53:20;;;;;;;;;;;;;;;6.00;100.00;94797.72;10487032;28;2948;-74
2024/03/24 13:58:23;;;;;;;;;;;;;;;6.68;100.00;94803.41;10497781;28;2812;-67
2024/03/24 14:03:26;;;;;;;;;;;;;;;6.49;100.00;94785.34;10476623;28;2829;-69
2024/03/24 14:08:28;;;;;;;;;;;;;;;6.07;100.00;94793.69;10479202;28;2585;-66
2024/03/24 14:13:31;;;;;;;;;;;;;;;5.98;100.00;94779.31;10484303;28;2814;-66
2024/03/24 14:18:32;;;;;;;;;;;;;;;6.00;100.00;94797.72;10463894;28;2878;-67
2024/03/24 14:23:35;;;;;;;;;;;;;;;5.81;100.00;94798.22;10477065;28;2810;-67
2024/03/24 14:28:40;;;;;;;;;;;;;;;5.90;100.00;94796.59;10481470;28;2695;-67
2024/03/24 14:33:42;;;;;;;;;;;;;;;5.85;100.00;94804.63;10482023;28;2887;-67
2024/03/24 14:38:44;;;;;;;;;;;;;;;5.75;100.00;94796.63;10484658;28;2815;-67
2024/03/24 14:43:46;;;;;;;;;;;;;;;5.92;100.00;94788.38;10481853;28;2932;-67
2024/03/24 14:48:51;;;;;;;;;;;;;;;6.14;100.00;94778.19;10486503;28;2814;-67
2024/03/24 14:53:53;;;;;;;;;;;;;;;6.09;100.00;94769.41;10477351;28;2724;-66
2024/03/24 14:58:55;;;;;;;;;;;;;;;5.91;100.00;94770.75;10463573;28;2597;-66
2024/03/24 15:04:00;;;;;;;;;;;;;;;5.51;100.00;94779.53;10486285;28;3041;-65
2024/03/24 15:09:02;;;;;;;;;;;;;;;5.46;100.00;94783.00;10479317;28;2588;-65
2024/03/24 15:14:03;;;;;;;;;;;;;;;5.46;100.00;94784.84;10482542;28;2861;-66
2024/03/24 15:19:06;;;;;;;;;;;;;;;5.37;100.00;94772.06;10487934;28;2890;-64
2024/03/24 15:24:08;;;;;;;;;;;;;;;5.29;100.00;94785.13;10468234;28;2827;-66
2024/03/24 15:29:10;;;;;;;;;;;;;;;4.89;100.00;94787.41;10474455;28;2847;-67
2024/03/24 15:34:15;;;;;;;;;;;;;;;4.84;100.00;94771.44;10483827;28;2840;-67
2024/03/24 15:39:18;;;;;;;;;;;;;;;4.98;100.00;94797.56;10480312;28;2841;-67
2024/03/24 15:44:20;;;;;;;;;;;;;;;5.07;100.00;94782.66;10479655;28;2772;-66
2024/03/24 15:49:22;;;;;;;;;;;;;;;5.13;100.00;94770.97;10484273;28;2852;-66
2024/03/24 15:54:24;;;;;;;;;;;;;;;5.51;100.00;94769.66;10476438;28;2539;-67
2024/03/24 15:59:25;;;;;;;;;;;;;;;5.73;100.00;94760.63;10479200;28;2886;-67
2024/03/24 16:04:28;;;;;;;;;;;;;;;5.65;100.00;94760.06;10481899;28;2744;-67
2024/03/24 16:09:32;;;;;;;;;;;;;;;5.87;100.00;94762.47;10481148;28;2695;-69
2024/03/24 16:14:33;;;;;;;;;;;;;;;5.90;100.00;94761.91;10485095;28;2645;-66
2024/03/24 16:19:36;;;;;;;;;;;;;;;5.64;100.00;94771.81;10476621;28;2800;-66
2024/03/24 16:24:37;;;;;;;;;;;;;;;5.40;100.00;94765.38;10476981;28;2869;-67
2024/03/24 16:29:40;;;;;;;;;;;;;;;5.24;100.00;94793.91;10479827;28;2850;-65
2024/03/24 16:34:45;;;;;;;;;;;;;;;3.30;100.00;94833.72;10488173;28;2737;-67
2024/03/24 16:39:46;;;;;;;;;;;;;;;2.10;100.00;94837.06;10478749;28;2938;-67
2024/03/24 16:44:48;;;;;;;;;;;;;;;2.17;100.00;94829.72;10480813;28;2855;-67
2024/03/24 16:49:50;;;;;;;;;;;;;;;2.15;100.00;94834.44;10480069;28;2652;-67
2024/03/24 16:54:52;;;;;;;;;;;;;;;2.13;100.00;94836.56;10481564;28;2589;-72
2024/03/24 16:59:54;;;;;;;;;;;;;;;2.12;100.00;94834.97;10482286;28;2834;-74
2024/03/24 17:04:56;;;;;;;;;;;;;;;2.27;100.00;94838.84;10464525;28;2868;-68
2024/03/24 17:09:59;;;;;;;;;;;;;;;2.32;100.00;94818.53;10482140;28;2863;-68
2024/03/24 17:15:01;;;;;;;;;;;;;;;2.35;100.00;94814.56;10476360;28;2758;-68
2024/03/24 17:20:02;;;;;;;;;;;;;;;2.31;100.00;94808.97;10478882;28;2860;-70
2024/03/24 17:25:07;;;;;;;;;;;;;;;2.31;100.00;94802.88;10476952;28;2731;-73
2024/03/24 17:30:09;;;;;;;;;;;;;;;2.33;100.00;94806.06;10462632;28;2559;-74
2024/03/24 17:35:11;;;;;;;;;;;;;;;2.52;100.00;94814.53;10483553;28;2812;-68
2024/03/24 17:40:13;;;;;;;;;;;;;;;2.72;100.00;94814.75;10478098;28;2808;-70
2024/03/24 17:45:15;;;;;;;;;;;;;;;2.87;100.00;94828.22;10481413;28;2841;-66
2024/03/24 17:50:17;;;;;;;;;;;;;;;3.07;100.00;94864.81;10473894;28;2919;-67
2024/03/24 17:55:19;;;;;;;;;;;;;;;2.92;100.00;94869.94;10482912;28;2801;-67
2024/03/24 18:00:21;;;;;;;;;;;;;;;2.74;100.00;94886.19;10501910;28;2829;-67
2024/03/24 18:05:22;;;;;;;;;;;;;;;2.55;100.00;94881.19;10508289;28;1911;-67
2024/03/24 18:10:25;;;;;;;;;;;;;;;2.37;100.00;94892.06;10503806;28;2390;-68
2024/03/24 18:15:27;;;;;;;;;;;;;;;2.29;100.00;94882.66;10505196;28;1929;-66
2024/03/24 18:20:32;;;;;;;;;;;;;;;2.20;100.00;94880.66;10511592;28;1975;-67
2024/03/24 18:25:34;;;;;;;;;;;;;;;2.25;100.00;94888.69;10492800;28;1962;-67
2024/03/24 18:30:37;;;;;;;;;;;;;;;2.24;100.00;94892.41;10509349;28;1496;-66
2024/03/24 18:35:39;;;;;;;;;;;;;;;2.26;100.00;94900.91;10500962;28;1952;-68
2024/03/24 18:40:41;;;;;;;;;;;;;;;2.24;100.00;94903.00;10499278;28;1902;-72
2024/03/24 18:45:43;;;;;;;;;;;;;;;2.20;100.00;94904.53;10498963;28;1868;-68
2024/03/24 18:50:45;;;;;;;;;;;;;;;2.17;100.00;94896.03;10505783;28;2009;-67
2024/03/24 18:55:47;;;;;;;;;;;;;;;2.17;100.00;94887.25;10484352;28;2871;-67
2024/03/24 19:00:56;;;;;;;;;;;;;;;2.07;100.00;94892.41;10483647;28;2780;-69
2024/03/24 19:05:58;;;;;;;;;;;;;;;2.09;100.00;94899.06;10482040;28;2866;-66
2024/03/24 19:11:02;;;;;;;;;;;;;;;2.17;100.00;94893.38;10480071;28;2826;-69
2024/03/24 19:16:05;;;;;;;;;;;;;;;2.15;100.00;94898.09;10486531;28;2766;-68
2024/03/24 19:21:08;;;;;;;;;;;;;;;2.12;100.00;94895.13;10490232;28;2923;-67
2024/03/24 19:26:10;;;;;;;;;;;;;;;2.15;100.00;94899.94;10483315;28;2753;-67
2024/03/24 19:31:12;;;;;;;;;;;;;;;2.21;100.00;94892.88;10479385;28;2544;-68
2024/03/24 19:36:13;;;;;;;;;;;;;;;2.28;100.00;94896.16;10475611;28;2864;-66
2024/03/24 19:41:15;;;;;;;;;;;;;;;2.42;100.00;94900.09;10478970;28;2814;-66
2024/03/24 19:46:16;;;;;;;;;;;;;;;2.50;100.00;94902.31;10479215;28;3108;-68
2024/03/24 19:51:18;;;;;;;;;;;;;;;2.66;100.00;94893.50;10477156;28;2786;-67
2024/03/24 19:56:20;;;;;;;;;;;;;;;2.70;100.00;94891.97;10479827;28;2773;-72
2024/03/24 20:01:22;;;;;;;;;;;;;;;2.76;100.00;94878.78;10481920;28;2743;-69
2024/03/24 20:06:23;;;;;;;;;;;;;;;2.83;100.00;94890.00;10480946;28;2803;-68
2024/03/24 20:11:31;;;;;;;;;;;;;;;2.87;100.00;94897.25;10481200;28;2934;-71
2024/03/24 20:16:33;;;;;;;;;;;;;;;2.81;100.00;94898.22;10467086;28;2697;-67
2024/03/24 20:21:37;;;;;;;;;;;;;;;2.79;100.00;94895.00;10477075;28;2814;-69
2024/03/24 20:26:38;;;;;;;;;;;;;;;2.76;100.00;94889.41;10482923;28;2749;-67
2024/03/24 20:31:40;;;;;;;;;;;;;;;2.71;100.00;94882.97;10480795;28;2858;-65
2024/03/24 20:36:42;;;;;;;;;;;;;;;2.63;100.00;94879.94;10482980;28;2871;-67
2024/03/24 20:41:43;;;;;;;;;;;;;;;2.63;100.00;94875.44;10478342;28;2884;-68
2024/03/24 20:46:45;;;;;;;;;;;;;;;2.49;100.00;94879.50;10476954;28;2814;-69
2024/03/24 20:51:46;;;;;;;;;;;;;;;2.43;100.00;94872.53;10477005;28;2821;-70
2024/03/24 20:56:48;;;;;;;;;;;;;;;2.43;100.00;94880.47;10459695;28;2791;-67
2024/03/24 21:01:50;;;;;;;;;;;;;;;2.38;100.00;94873.25;10477853;28;2917;-69
2024/03/24 21:06:52;;;;;;;;;;;;;;;2.30;100.00;94867.56;10481794;28;2327;-67
2024/03/24 21:11:53;;;;;;;;;;;;;;;2.30;100.00;94875.50;10476881;28;2840;-66
2024/03/24 21:16:54;;;;;;;;;;;;;;;2.32;100.00;94874.22;10476870;28;2853;-65
2024/03/24 21:21:57;;;;;;;;;;;;;;;2.48;100.00;94883.16;10476777;28;2884;-66
2024/03/24 21:26:58;;;;;;;;;;;;;;;2.57;100.00;94879.06;10477984;28;2802;-66
2024/03/24 21:32:00;;;;;;;;;;;;;;;2.71;100.00;94882.97;10482571;28;2809;-67
2024/03/24 21:37:03;;;;;;;;;;;;;;;2.78;100.00;94877.47;10484570;28;2879;-66
2024/03/24 21:42:09;;;;;;;;;;;;;;;2.87;100.00;94885.81;10480486;28;2842;-67
2024/03/24 21:47:10;;;;;;;;;;;;;;;2.89;100.00;94884.53;10487562;28;2826;-66
2024/03/24 21:52:12;;;;;;;;;;;;;;;2.92;100.00;94893.81;10494265;28;2744;-66
2024/03/24 21:57:14;;;;;;;;;;;;;;;2.92;100.00;94894.63;10488218;28;2881;-65
2024/03/24 22:02:15;;;;;;;;;;;;;;;2.94;100.00;94881.13;10480452;28;2869;-66
2024/03/24 22:07:20;;;;;;;;;;;;;;;2.90;100.00;94882.66;10482974;28;2904;-66
2024/03/24 22:12:22;;;;;;;;;;;;;;;2.78;100.00;94876.69;10482076;28;2830;-67
2024/03/24 22:17:23;;;;;;;;;;;;;;;2.71;100.00;94872.34;10478892;28;2742;-66
2024/03/24 22:22:25;;;;;;;;;;;;;;;2.68;100.00;94869.41;10478923;28;2872;-66
2024/03/24 22:27:26;;;;;;;;;;;;;;;2.64;100.00;94882.34;10482648;28;2872;-67
2024/03/24 22:32:28;;;;;;;;;;;;;;;2.65;100.00;94878.63;10481520;28;2807;-67
2024/03/24 22:37:30;;;;;;;;;;;;;;;2.66;100.00;94880.25;10479692;28;2982;-67
2024/03/24 22:42:36;;;;;;;;;;;;;;;2.81;100.00;94876.19;10484528;28;2774;-67
2024/03/24 22:47:37;;;;;;;;;;;;;;;2.90;100.00;94882.66;10485468;28;2946;-66
2024/03/24 22:52:39;;;;;;;;;;;;;;;2.98;100.00;94861.78;10485256;28;2915;-66
2024/03/24 22:57:40;;;;;;;;;;;;;;;3.05;100.00;94864.25;10483471;28;2735;-65
2024/03/24 23:02:42;;;;;;;;;;;;;;;3.03;100.00;94863.69;10478424;28;2770;-65
2024/03/24 23:07:46;;;;;;;;;;;;;;;2.94;100.00;94867.84;10483087;28;2886;-64
2024/03/24 23:12:50;;;;;;;;;;;;;;;2.92;100.00;94868.09;10467648;28;2859;-69
2024/03/24 23:17:52;;;;;;;;;;;;;;;2.95;100.00;94861.50;10473880;28;2923;-67
2024/03/24 23:22:56;;;;;;;;;;;;;;;2.99;100.00;94862.63;10477372;28;2888;-66
2024/03/24 23:28:01;;;;;;;;;;;;;;;3.01;100.00;94863.16;10480325;28;2894;-66
2024/03/24 23:33:03;;;;;;;;;;;;;;;2.98;100.00;94860.97;10478433;28;2852;-64
2024/03/24 23:38:04;;;;;;;;;;;;;;;2.81;100.00;94870.88;10466566;28;3028;-67
2024/03/24 23:43:06;;;;;;;;;;;;;;;2.70;100.00;94877.91;10477777;28;2574;-66
2024/03/24 23:48:08;;;;;;;;;;;;;;;2.73;100.00;94869.44;10480340;28;2801;-65
2024/03/24 23:53:10;;;;;;;;;;;;;;;2.76;100.00;94868.16;10481834;28;2679;-66
2024/03/24 23:58:13;;;;;;;;;;;;;;;2.87;100.00;94872.56;10476280;28;2827;-66
